Domov               UVHVVR             MKGP            O straneh              
ZDRAVSTVENO VARSTVO RASTLIN
  MREŽA AGROMET. POSTAJ
 ► PROGNOSTIČNA OBVESTILA
AGROMETEOROLOŠKI PODATKI -
ARSO
OBVLADOVANJE TVEGANJ ZARADI
NEUGODNIH VREMENSKIH RAZMER
  ► NARAVNE NESREČE
  ► SUŠA/MOČA
  ► NAMAKANJE
  ► ŽLED (gozdarstvo)
KARTOGRAFSKI PRIKAZI
SPLETNE POVEZAVE
PROJEKTI IN PUBLIKACIJE

AGROMETEOROLOŠKA MREŽA: VREMENSKE POSTAJE IN FENOLOŠKA OPAZOVANJA

Pregled podatkov za lokacijo Šentilj, meteorološka postaja 24379

Pregled senzorjev na lokaciji

ID Ime Zadnja
vrednost
Datum
zadnje
spremembe
Tip
senzorja
904 Omočenost lista (U) 0 U 20.6.2018 16:30 A730WET
3858 Padavine (mm) 0 mm 20.6.2018 16:30 Generic 0.2 mm
906 Relativna vlaga 2 m (% RH) 40,71 % RH 20.6.2018 16:30 Generic 0 - 100 %
905 Temperatura 2 m (°C) 28,96 °C 20.6.2018 16:30 Generic -40 - +60 °C

Pregled podatkov zadnjih 24 ur

Zap.
št.
Datum in čas Šentilj
Omočenost
lista
Padavine Relativna
vlaga
2
m
Temperatura
2
m
1 20.6.2018 17:00
2 20.6.2018 16:30
3 20.6.2018 16:00
4 20.6.2018 15:30 0 0 40,7 29
5 20.6.2018 15:00 0 0 40,5 28,8
6 20.6.2018 14:30 0 0 38,8 29,1
7 20.6.2018 14:00 0 0 40,3 28,5
8 20.6.2018 13:30 0 0 36,9 28,2
9 20.6.2018 13:00 0 0 37,7 28
10 20.6.2018 12:30 0 0 38,3 27,6
11 20.6.2018 12:00 0 0 38,9 27,4
12 20.6.2018 11:30 0 0 40,3 26,9
13 20.6.2018 11:00 0 0 39,9 27
14 20.6.2018 10:30 0 0 40,8 26,7
15 20.6.2018 10:00 0 0 44,2 25,9
16 20.6.2018 09:30 0 0 46,6 25,3
17 20.6.2018 09:00 0 0 46,3 25
18 20.6.2018 08:30 0 0 52,2 24,3
19 20.6.2018 08:00 0 0 59 22,5
20 20.6.2018 07:30 0 0 64,3 20,1
21 20.6.2018 07:00 0 0 64,4 19,4
22 20.6.2018 06:30 0 0 64,9 18,7
23 20.6.2018 06:00 0 0 68,9 17,6
24 20.6.2018 05:30 0 0 71,4 17,4
25 20.6.2018 05:00 0 0 70,8 17,2
26 20.6.2018 04:30 0 0 71,5 17
27 20.6.2018 04:00 0 0 68,7 17,5
28 20.6.2018 03:30 0 0 69,2 17,6
29 20.6.2018 03:00 0 0 67,4 18
30 20.6.2018 02:30 0 0 64 18,5
31 20.6.2018 02:00 0 0 57,5 19,7
32 20.6.2018 01:30 0 0 57,8 19,7
33 20.6.2018 01:00 0 0 57,2 20,1
34 20.6.2018 00:30 0 0 58,1 19,9
35 20.6.2018 00:00 0 0 59,3 19,7
36 19.6.2018 23:30 0 0 59,4 20
37 19.6.2018 23:00 0 0 62,2 19,9
38 19.6.2018 22:30 0 0 62,9 19,9
39 19.6.2018 22:00 0 0 58,7 20,8
40 19.6.2018 21:30 0 0 55,9 21,5
41 19.6.2018 21:00 0 0 55,9 21,5
42 19.6.2018 20:30 0 0 54 22
43 19.6.2018 20:00 0 0 53 22,3
44 19.6.2018 19:30 0 0 51,9 22,9
45 19.6.2018 19:00 0 0 49,4 24,4
46 19.6.2018 18:30 0 0 43,1 27,3
47 19.6.2018 18:00 0 0 40,6 28
48 19.6.2018 17:30 0 0 41 28,1
© 2011 Ministrstvo za kmetijstvo, gozdarstvo in prehrano. Vse pravice pridržane.